Hauptseite
METAR-TAF:

METAR-TAF

Flughäfen :

Chichén Itzá, Mexiko

Breite: 20-38-30N, Länge: 088-26-58W, Höhe: 31 m

Beobachtung

Neuester Wetterbericht von vor 48 Minuten, um 21:50 UTC
Windstille
Temperatur 26°C
Luftfeuchtigkeit 89%
Luftdruck 1013 hPa
Sichtweite: 8.0 km
Durchbrochene Bewölkung in der Höhe von 2000 ft, Kumulonimbus.
Durchbrochene Bewölkung in der Höhe von 10000 ft
Geschlossene Wolkendecke in der Höhe von 30000 ft

METAR: MMCT 222150Z 00000KT 5SM BKN020CB BKN100 OVC300 26/24 A2992 RMK 8/363 OCNL DRPS

Zeit: 17:38 (22:38 UTC)


TAF: fehlend

Wetterbeobachtungen und Prognosen von mehr als 4000 Flughäfen (METAR und TAF Bericht).

Die verfügbaren Stationen werden durch gelbe und rote Markierungen auf der Karte dargestellt.

Führen Sie die Maus auf sie, um den Namen der Station zu sehen.

Darauf klicken, um die Beobachtung von Wetterbeobachtungen und Prognosen zu sehen.

Um die Karte zu ändern : klicken Sie auf den grünen Tasten mit einem schwarzen Kreuz Zum Vergrößern, auf den grünen Button mit einem Gedankenstrich zu verkleinern, oder auf die grünen Pfeile für benachbarte Karten.


METAR-TAF: